Terminal Aerodrome Forecast
Issued by NWS

Home | Current Version | Previous Version | Graphics & Text | Print | Product List | Glossary On
Versions: 1 2 3 4 5 6 7 8 9 10 11 12 13 14 15 16 17 18 19 20
000
FTUS43 KGRB 241108 AAB
TAFAUW
TAF AMD
KAUW 241108Z 2411/2506 04014G25KT 1 1/2SM -SN VCTS OVC010CB
      TEMPO 2411/2414 1/2SM SN OVC004
     FM241900 02016G25KT 1SM -SN BLSN OVC010
     FM242300 36013G20KT 1 1/2SM -SN BLSN OVC012=

USA.gov is the U.S. government's official web portal to all federal, state and local government web resources and services.